createdAt,value
2018-12-13T00:01:31.040Z,30.57
2018-12-13T00:04:07.925Z,27.73
2018-12-13T00:06:44.743Z,30.97
2018-12-13T00:09:22.737Z,28.73
2018-12-13T00:12:01.109Z,27.10
2018-12-13T00:14:38.764Z,28.93
2018-12-13T00:17:18.218Z,28.47
2018-12-13T00:19:55.220Z,26.67
2018-12-13T00:22:32.804Z,28.83
2018-12-13T00:25:09.544Z,28.98
2018-12-13T00:27:46.245Z,27.77
2018-12-13T00:33:13.709Z,26.80
2018-12-13T00:35:50.393Z,29.20
2018-12-13T00:38:28.608Z,28.27
2018-12-13T00:41:06.883Z,24.63
2018-12-13T00:43:45.194Z,25.40
2018-12-13T00:46:23.272Z,24.33
2018-12-13T00:49:01.271Z,24.00
2018-12-13T00:51:41.328Z,27.33
2018-12-13T00:54:19.344Z,25.57
2018-12-13T00:56:57.522Z,23.17
2018-12-13T00:59:35.586Z,24.63
2018-12-13T01:02:13.134Z,21.77
2018-12-13T01:04:49.728Z,25.47
2018-12-13T01:07:26.584Z,24.07
2018-12-13T01:10:03.271Z,25.17
2018-12-13T01:12:42.355Z,31.60
2018-12-13T01:15:20.977Z,30.23
2018-12-13T01:18:00.119Z,25.93
2018-12-13T01:20:36.729Z,26.33
2018-12-13T01:23:17.100Z,30.77
2018-12-13T01:25:54.791Z,20.95
2018-12-13T01:28:31.623Z,21.57
2018-12-13T01:31:09.560Z,22.30
2018-12-13T01:33:48.591Z,32.67
2018-12-13T01:36:26.194Z,20.70
2018-12-13T01:39:02.936Z,15.67
2018-12-13T01:41:39.291Z,16.13
2018-12-13T01:44:17.419Z,13.83
2018-12-13T01:46:55.731Z,13.77
2018-12-13T01:49:37.544Z,15.70
2018-12-13T01:52:18.699Z,17.90
2018-12-13T01:54:57.161Z,18.83
2018-12-13T01:57:35.697Z,18.87
2018-12-13T02:00:13.916Z,19.70
2018-12-13T02:02:51.961Z,15.08
2018-12-13T02:05:31.528Z,19.48
2018-12-13T02:08:10.485Z,21.83
2018-12-13T02:10:58.541Z,18.17
2018-12-13T02:13:39.674Z,19.13
2018-12-13T02:16:18.288Z,17.93
2018-12-13T02:18:55.005Z,18.90
2018-12-13T02:21:33.070Z,17.53
2018-12-13T02:24:08.569Z,18.07
2018-12-13T02:26:45.016Z,21.63
2018-12-13T02:29:21.062Z,21.87
2018-12-13T02:31:56.972Z,20.27
2018-12-13T02:34:33.496Z,21.57
2018-12-13T02:37:17.905Z,21.67
2018-12-13T02:39:56.267Z,21.77
2018-12-13T02:42:31.652Z,22.30
2018-12-13T02:45:07.592Z,21.83
2018-12-13T02:47:45.234Z,23.00
2018-12-13T02:50:26.027Z,23.70
2018-12-13T02:53:03.754Z,21.80
2018-12-13T02:55:50.737Z,21.77
2018-12-13T02:58:29.052Z,25.08
2018-12-13T03:01:06.119Z,26.63
2018-12-13T03:03:52.906Z,26.97
2018-12-13T03:06:30.567Z,30.97
2018-12-13T03:09:08.333Z,26.85
2018-12-13T03:11:47.748Z,24.30
2018-12-13T03:14:25.605Z,24.23
2018-12-13T03:17:04.524Z,25.93
2018-12-13T03:19:40.898Z,26.10
2018-12-13T03:22:20.111Z,27.83
2018-12-13T03:24:58.318Z,30.60
2018-12-13T03:27:37.396Z,34.03
2018-12-13T03:30:16.935Z,28.53
2018-12-13T03:32:57.315Z,27.80
2018-12-13T03:35:37.375Z,29.23
2018-12-13T03:38:17.026Z,31.37
2018-12-13T03:40:53.828Z,37.57
2018-12-13T03:43:34.457Z,35.10
2018-12-13T03:46:14.127Z,30.50
2018-12-13T03:48:52.037Z,26.73
2018-12-13T03:51:35.201Z,34.83
2018-12-13T03:54:13.437Z,32.20
2018-12-13T03:56:51.082Z,33.57
2018-12-13T03:59:28.429Z,31.73
2018-12-13T04:02:10.250Z,29.27
2018-12-13T04:04:55.363Z,30.63
2018-12-13T04:07:31.974Z,29.37
2018-12-13T04:10:09.342Z,30.27
2018-12-13T04:15:34.269Z,30.47
2018-12-13T04:18:12.223Z,30.37
2018-12-13T04:20:49.338Z,30.00
2018-12-13T04:23:26.499Z,26.12
2018-12-13T04:26:03.233Z,28.13
2018-12-13T04:28:42.238Z,29.80
2018-12-13T04:31:20.455Z,37.10
2018-12-13T04:33:59.057Z,35.43
2018-12-13T04:36:37.990Z,32.33
2018-12-13T04:39:14.067Z,33.10
2018-12-13T04:41:51.344Z,29.73
2018-12-13T04:44:29.661Z,27.62
2018-12-13T04:47:07.056Z,31.57
2018-12-13T04:49:46.702Z,25.73
2018-12-13T04:52:25.117Z,22.47
2018-12-13T04:54:59.355Z,25.83
2018-12-13T04:57:42.327Z,20.00
2018-12-13T05:00:19.810Z,24.80
2018-12-13T05:02:59.431Z,24.00
2018-12-13T05:05:37.712Z,26.23
2018-12-13T05:08:14.195Z,28.13
2018-12-13T05:13:51.567Z,26.57
2018-12-13T05:16:29.751Z,25.65
2018-12-13T05:19:11.896Z,24.17
2018-12-13T05:21:54.679Z,25.60
2018-12-13T05:24:33.844Z,26.87
2018-12-13T05:27:10.135Z,29.27
2018-12-13T05:29:47.830Z,31.07
2018-12-13T05:32:27.051Z,30.27
2018-12-13T05:35:05.901Z,30.10
2018-12-13T05:37:48.223Z,29.20
2018-12-13T05:40:24.148Z,25.83
2018-12-13T05:42:57.996Z,36.60
2018-12-13T05:45:33.625Z,32.60
2018-12-13T05:48:11.387Z,21.57
2018-12-13T05:50:47.260Z,25.10
2018-12-13T05:53:22.510Z,21.80
2018-12-13T05:55:59.069Z,22.85
2018-12-13T05:58:36.621Z,23.63
2018-12-13T06:01:13.681Z,21.90
2018-12-13T06:03:45.781Z,25.60
2018-12-13T06:06:22.580Z,22.27
2018-12-13T06:09:00.999Z,16.43
2018-12-13T06:11:37.955Z,16.93
2018-12-13T06:14:10.010Z,18.40
2018-12-13T06:16:47.406Z,17.03
2018-12-13T06:19:26.682Z,19.65
2018-12-13T06:22:03.299Z,18.43
2018-12-13T06:24:40.236Z,16.47
2018-12-13T06:27:17.035Z,15.13
2018-12-13T06:29:58.767Z,19.97
2018-12-13T06:32:35.006Z,20.53
2018-12-13T06:35:13.190Z,15.67
2018-12-13T06:37:51.738Z,15.30
2018-12-13T06:40:28.348Z,13.30
2018-12-13T06:43:05.293Z,14.73
2018-12-13T06:45:43.154Z,16.40
2018-12-13T06:48:24.842Z,16.50
2018-12-13T06:51:02.711Z,17.97
2018-12-13T06:53:40.865Z,18.23
2018-12-13T06:56:15.213Z,17.50
2018-12-13T06:58:52.855Z,18.40
2018-12-13T07:01:26.457Z,20.27
2018-12-13T07:04:04.438Z,21.30
2018-12-13T07:06:44.047Z,20.87
2018-12-13T07:09:23.823Z,19.37
2018-12-13T07:11:59.832Z,18.60
2018-12-13T07:14:37.170Z,16.73
2018-12-13T07:17:14.627Z,23.07
2018-12-13T07:19:52.292Z,17.33
2018-12-13T07:22:29.996Z,14.20
2018-12-13T07:25:07.537Z,20.12
2018-12-13T07:27:45.226Z,17.10
2018-12-13T07:30:22.321Z,18.13
2018-12-13T07:33:06.352Z,24.53
2018-12-13T07:35:45.274Z,27.40
2018-12-13T07:38:22.982Z,28.63
2018-12-13T07:41:00.831Z,29.17
2018-12-13T07:43:37.726Z,29.70
2018-12-13T07:46:13.461Z,22.23
2018-12-13T07:48:56.430Z,20.83
2018-12-13T07:51:32.305Z,23.90
2018-12-13T07:54:09.866Z,21.13
2018-12-13T07:56:51.599Z,19.80
2018-12-13T07:59:28.883Z,22.35
2018-12-13T08:02:06.448Z,24.40
2018-12-13T08:04:42.875Z,24.60
2018-12-13T08:10:09.690Z,24.50
2018-12-13T08:12:45.811Z,31.03
2018-12-13T08:15:20.997Z,26.20
2018-12-13T08:17:57.282Z,27.77
2018-12-13T08:20:34.344Z,29.90
2018-12-13T08:25:59.212Z,27.17
2018-12-13T08:28:36.828Z,35.67
2018-12-13T08:31:14.850Z,34.73
2018-12-13T08:33:52.024Z,35.30
2018-12-13T08:36:28.423Z,35.23
2018-12-13T08:39:06.466Z,34.23
2018-12-13T08:41:45.196Z,34.00
2018-12-13T08:44:23.648Z,36.13
2018-12-13T08:46:59.950Z,31.82
2018-12-13T08:49:37.079Z,38.20
2018-12-13T08:52:17.505Z,30.13
2018-12-13T08:54:55.307Z,26.10
2018-12-13T08:57:33.109Z,23.40
2018-12-13T09:00:12.348Z,25.27
2018-12-13T09:02:50.081Z,20.77
2018-12-13T09:05:28.155Z,21.00
2018-12-13T09:08:05.903Z,24.00
2018-12-13T09:10:43.291Z,22.67
2018-12-13T09:13:18.356Z,21.10
2018-12-13T09:15:55.090Z,19.40
2018-12-13T09:18:33.173Z,20.07
2018-12-13T09:21:09.518Z,20.80
2018-12-13T09:23:45.510Z,19.90
2018-12-13T09:26:21.748Z,23.22
2018-12-13T09:28:59.805Z,31.67
2018-12-13T09:31:36.520Z,26.17
2018-12-13T09:34:13.555Z,27.50
2018-12-13T09:36:51.992Z,20.13
2018-12-13T09:39:28.404Z,21.80
2018-12-13T09:42:06.671Z,24.20
2018-12-13T09:44:43.500Z,26.23
2018-12-13T09:47:20.032Z,25.77
2018-12-13T09:49:56.403Z,26.93
2018-12-13T09:52:32.879Z,25.33
2018-12-13T09:55:13.304Z,19.07
2018-12-13T09:57:50.531Z,22.73
2018-12-13T10:00:27.632Z,19.07
2018-12-13T10:03:04.337Z,19.32
2018-12-13T10:05:41.824Z,24.83
2018-12-13T10:08:18.466Z,18.90
2018-12-13T10:10:54.829Z,18.80
2018-12-13T10:13:32.899Z,20.13
2018-12-13T10:16:10.482Z,18.05
2018-12-13T10:18:47.748Z,20.57
2018-12-13T10:21:25.440Z,19.37
2018-12-13T10:24:02.158Z,21.20
2018-12-13T10:26:40.042Z,18.67
2018-12-13T10:29:17.348Z,18.60
2018-12-13T10:31:54.352Z,25.23
2018-12-13T10:34:33.339Z,22.00
2018-12-13T10:37:12.941Z,19.77
2018-12-13T10:39:50.467Z,20.53
2018-12-13T10:42:26.266Z,20.10
2018-12-13T10:45:05.040Z,22.63
2018-12-13T10:47:43.217Z,17.20
2018-12-13T10:50:19.367Z,17.57
2018-12-13T10:52:58.996Z,13.23
2018-12-13T10:55:38.467Z,14.10
2018-12-13T10:58:14.419Z,12.87
2018-12-13T11:00:54.224Z,12.03
2018-12-13T11:03:35.771Z,14.33
2018-12-13T11:06:14.070Z,10.98
2018-12-13T11:08:51.114Z,10.87
2018-12-13T11:11:30.539Z,7.15
2018-12-13T11:14:08.068Z,7.03
2018-12-13T11:16:45.789Z,9.40
2018-12-13T11:19:23.129Z,7.50
2018-12-13T11:22:00.891Z,8.63
2018-12-13T11:24:38.682Z,8.30
2018-12-13T11:27:31.564Z,9.77
2018-12-13T11:30:37.195Z,11.27
2018-12-13T11:35:59.873Z,9.93
2018-12-13T11:38:36.233Z,11.10
2018-12-13T11:41:13.362Z,12.93
2018-12-13T11:43:52.689Z,12.70
2018-12-13T11:46:28.747Z,13.00
2018-12-13T11:49:11.923Z,14.23
2018-12-13T11:51:45.501Z,11.23
2018-12-13T11:54:48.552Z,16.00
2018-12-13T11:57:25.272Z,19.37
2018-12-13T12:00:01.124Z,14.97
2018-12-13T12:02:37.941Z,11.37
2018-12-13T12:05:17.319Z,11.00
2018-12-13T12:07:53.353Z,15.43
2018-12-13T12:10:30.409Z,10.80
2018-12-13T12:13:06.824Z,13.13
2018-12-13T12:19:00.804Z,15.73
2018-12-13T12:24:03.805Z,13.47
2018-12-13T12:26:41.492Z,13.83
2018-12-13T12:29:16.387Z,13.65
2018-12-13T12:31:52.582Z,10.63
2018-12-13T12:34:28.845Z,11.25
2018-12-13T12:37:05.219Z,10.27
2018-12-13T12:39:45.471Z,10.07
2018-12-13T12:42:23.460Z,9.13
2018-12-13T12:45:03.245Z,10.53
2018-12-13T12:47:40.038Z,9.33
2018-12-13T12:50:15.719Z,9.30
2018-12-13T12:52:52.935Z,10.13
2018-12-13T12:55:31.742Z,11.33
2018-12-13T12:58:10.797Z,10.23
2018-12-13T13:00:47.226Z,12.10
2018-12-13T13:03:24.207Z,11.33
2018-12-13T13:06:03.065Z,12.33
2018-12-13T13:08:38.914Z,13.10
2018-12-13T13:11:16.724Z,12.40
2018-12-13T13:13:54.385Z,11.17
2018-12-13T13:16:29.947Z,9.60
2018-12-13T13:19:07.149Z,9.27
2018-12-13T13:21:43.882Z,9.27
2018-12-13T13:24:19.088Z,9.57
2018-12-13T13:26:54.655Z,8.10
2018-12-13T13:29:30.555Z,9.37
2018-12-13T13:32:06.124Z,9.63
2018-12-13T13:34:43.215Z,8.50
2018-12-13T13:37:21.045Z,10.60
2018-12-13T13:39:56.943Z,9.13
2018-12-13T13:42:35.161Z,10.10
2018-12-13T13:45:13.047Z,10.37
2018-12-13T13:47:48.499Z,8.45
2018-12-13T13:50:26.096Z,11.63
2018-12-13T13:53:01.759Z,10.03
2018-12-13T13:55:36.952Z,9.73
2018-12-13T13:58:12.582Z,10.63
2018-12-13T14:00:49.151Z,11.93
2018-12-13T14:03:25.610Z,12.07
2018-12-13T14:06:02.166Z,9.90
2018-12-13T14:08:38.597Z,13.97
2018-12-13T14:11:24.493Z,10.43
2018-12-13T14:14:00.639Z,14.67
2018-12-13T14:16:36.514Z,14.33
2018-12-13T14:19:12.632Z,11.78
2018-12-13T14:21:48.594Z,12.10
2018-12-13T14:24:22.563Z,13.60
2018-12-13T14:26:59.421Z,12.88
2018-12-13T14:29:34.346Z,14.57
2018-12-13T14:34:57.547Z,14.40
2018-12-13T14:37:31.906Z,12.93
2018-12-13T14:40:09.991Z,12.83
2018-12-13T14:42:46.517Z,12.87
2018-12-13T14:45:22.353Z,13.15
2018-12-13T14:47:58.918Z,11.97
2018-12-13T14:50:33.451Z,12.33
2018-12-13T14:53:06.392Z,11.40
2018-12-13T14:55:40.684Z,12.47
2018-12-13T14:58:16.051Z,10.55
2018-12-13T15:03:21.638Z,11.63
2018-12-13T15:05:57.097Z,10.90
2018-12-13T15:08:33.310Z,12.03
2018-12-13T15:11:07.251Z,11.77
2018-12-13T15:13:42.083Z,9.03
2018-12-13T15:16:15.610Z,10.63
2018-12-13T15:18:49.513Z,10.43
2018-12-13T15:21:26.585Z,12.25
2018-12-13T15:24:03.175Z,12.13
2018-12-13T15:26:38.327Z,10.40
2018-12-13T15:29:13.733Z,10.40
2018-12-13T15:31:48.873Z,13.13
2018-12-13T15:34:25.521Z,14.28
2018-12-13T15:39:56.982Z,12.57
2018-12-13T15:42:27.328Z,15.57
2018-12-13T15:45:03.829Z,14.97
2018-12-13T15:47:39.254Z,14.63
2018-12-13T15:50:15.576Z,15.00
2018-12-13T15:52:49.745Z,14.53
2018-12-13T15:55:26.832Z,15.48
2018-12-13T15:58:02.801Z,14.57
2018-12-13T16:03:55.884Z,16.67
2018-12-13T16:06:30.678Z,14.77
2018-12-13T16:09:09.090Z,14.70
2018-12-13T16:11:44.295Z,15.37
2018-12-13T16:14:20.414Z,16.63
2018-12-13T16:16:58.431Z,16.20
2018-12-13T16:19:35.659Z,14.40
2018-12-13T16:22:14.402Z,15.40
2018-12-13T16:24:50.617Z,18.17
2018-12-13T16:27:27.363Z,21.33
2018-12-13T16:30:12.114Z,24.27
2018-12-13T16:32:51.005Z,23.87
2018-12-13T16:35:26.101Z,18.23
2018-12-13T16:38:00.259Z,17.27
2018-12-13T16:40:38.402Z,18.60
2018-12-13T16:43:14.902Z,16.70
2018-12-13T16:45:53.507Z,19.40
2018-12-13T16:48:29.956Z,17.13
2018-12-13T16:51:09.343Z,18.80
2018-12-13T16:53:44.949Z,18.33
2018-12-13T16:59:05.746Z,17.03
2018-12-13T17:01:44.855Z,16.50
2018-12-13T17:04:25.561Z,18.90
2018-12-13T17:07:03.611Z,17.77
2018-12-13T17:09:41.583Z,17.33
2018-12-13T17:12:18.133Z,23.70
2018-12-13T17:14:55.429Z,19.60
2018-12-13T17:17:35.778Z,18.53
2018-12-13T17:20:15.120Z,19.87
2018-12-13T17:22:55.369Z,18.73
2018-12-13T17:25:33.200Z,20.17
2018-12-13T17:28:11.054Z,19.37
2018-12-13T17:30:47.800Z,21.37
2018-12-13T17:36:06.148Z,21.17
2018-12-13T17:38:44.460Z,22.60
2018-12-13T17:41:22.564Z,20.00
2018-12-13T17:46:53.354Z,21.37
2018-12-13T17:50:15.351Z,19.87
2018-12-13T17:52:56.473Z,18.20
2018-12-13T17:55:29.288Z,22.53
2018-12-13T17:58:02.683Z,21.10
2018-12-13T18:00:38.743Z,21.73
2018-12-13T18:03:16.420Z,19.20
2018-12-13T18:05:53.420Z,20.93
2018-12-13T18:08:31.966Z,20.20
2018-12-13T18:11:11.682Z,18.93
2018-12-13T18:13:49.651Z,20.23
2018-12-13T18:16:27.865Z,19.43
2018-12-13T18:18:59.666Z,20.33
2018-12-13T18:21:40.638Z,20.70
2018-12-13T18:24:19.933Z,24.05
2018-12-13T18:26:57.072Z,20.67
2018-12-13T18:30:04.632Z,20.47
2018-12-13T18:32:42.487Z,19.93
2018-12-13T18:35:21.145Z,20.70
2018-12-13T18:37:59.585Z,19.17
2018-12-13T18:40:36.403Z,20.93
2018-12-13T18:43:10.523Z,19.07
2018-12-13T18:45:49.395Z,19.57
2018-12-13T18:48:27.243Z,18.90
2018-12-13T18:51:05.009Z,19.70
2018-12-13T18:53:42.079Z,19.00
2018-12-13T18:56:19.049Z,18.50
2018-12-13T18:58:57.046Z,18.87
2018-12-13T19:01:32.551Z,18.47
2018-12-13T19:04:26.367Z,18.87
2018-12-13T19:07:04.816Z,15.63
2018-12-13T19:09:42.335Z,15.78
2018-12-13T19:12:19.995Z,19.37
2018-12-13T19:14:57.542Z,18.50
2018-12-13T19:17:37.033Z,15.83
2018-12-13T19:22:50.699Z,19.43
2018-12-13T19:25:35.796Z,17.73
2018-12-13T19:28:17.748Z,18.20
2018-12-13T19:30:55.767Z,17.50
2018-12-13T19:33:33.572Z,16.40
2018-12-13T19:36:12.388Z,17.20
2018-12-13T19:50:21.068Z,17.20
2018-12-13T19:52:59.673Z,15.83
2018-12-13T19:55:34.188Z,17.57
2018-12-13T19:58:15.566Z,19.73
2018-12-13T20:00:53.875Z,17.27
2018-12-13T20:03:32.692Z,17.83
2018-12-13T20:06:16.893Z,16.97
2018-12-13T20:08:56.635Z,18.20
2018-12-13T20:11:33.532Z,15.90
2018-12-13T20:14:11.295Z,18.17
2018-12-13T20:16:47.590Z,19.50
2018-12-13T20:19:28.272Z,19.32
2018-12-13T20:22:05.136Z,18.53
2018-12-13T20:24:47.903Z,18.67
2018-12-13T20:27:26.216Z,18.37
2018-12-13T20:30:03.301Z,21.47
2018-12-13T20:32:41.189Z,18.27
2018-12-13T20:35:19.919Z,18.87
2018-12-13T20:37:56.694Z,19.95
2018-12-13T20:40:34.569Z,17.70
2018-12-13T20:43:11.314Z,19.37
2018-12-13T20:45:49.801Z,18.93
2018-12-13T20:48:27.375Z,21.85
2018-12-13T20:51:10.114Z,23.20
2018-12-13T20:53:49.100Z,20.13
2018-12-13T20:56:28.536Z,26.50
2018-12-13T20:59:07.243Z,29.53
2018-12-13T21:01:45.326Z,21.80
2018-12-13T21:04:22.434Z,19.65
2018-12-13T21:07:02.526Z,23.20
2018-12-13T21:12:27.516Z,21.70
2018-12-13T21:15:05.090Z,25.40
2018-12-13T21:17:43.808Z,22.50
2018-12-13T21:20:18.532Z,24.27
2018-12-13T21:22:55.750Z,24.27
2018-12-13T21:25:33.678Z,23.97
2018-12-13T21:28:10.067Z,24.97
2018-12-13T21:30:48.571Z,25.08
2018-12-13T21:33:27.050Z,26.70
2018-12-13T21:36:04.044Z,26.97
2018-12-13T21:38:41.779Z,25.70
2018-12-13T21:41:19.347Z,30.32
2018-12-13T21:43:55.977Z,34.20
2018-12-13T21:46:31.415Z,28.87
2018-12-13T21:49:10.973Z,25.13
2018-12-13T21:51:48.958Z,26.53
2018-12-13T21:54:27.146Z,26.07
2018-12-13T21:57:04.428Z,26.43
2018-12-13T21:59:42.502Z,27.43
2018-12-13T22:02:19.780Z,25.52
2018-12-13T22:04:58.738Z,25.07
2018-12-13T22:07:35.563Z,26.73
2018-12-13T22:10:11.619Z,27.57
2018-12-13T22:12:45.861Z,27.20
2018-12-13T22:15:21.412Z,28.83
2018-12-13T22:17:56.253Z,27.83
2018-12-13T22:20:41.238Z,28.30
2018-12-13T22:23:17.543Z,26.63
2018-12-13T22:25:55.036Z,27.77
2018-12-13T22:28:30.879Z,28.17
2018-12-13T22:31:09.695Z,28.90
2018-12-13T22:33:45.294Z,31.27
2018-12-13T22:36:18.457Z,27.97
2018-12-13T22:38:53.647Z,27.10
2018-12-13T22:41:27.034Z,30.75
2018-12-13T22:44:02.775Z,28.73
2018-12-13T22:46:38.557Z,29.53
2018-12-13T22:49:14.858Z,31.65
2018-12-13T22:51:54.186Z,32.37
2018-12-13T22:54:31.694Z,30.40
2018-12-13T22:57:07.869Z,30.93
2018-12-13T22:59:46.406Z,32.67
2018-12-13T23:02:25.231Z,32.67
2018-12-13T23:05:00.095Z,33.47
2018-12-13T23:07:34.669Z,29.30
2018-12-13T23:10:13.842Z,29.20
2018-12-13T23:12:50.851Z,30.83
2018-12-13T23:15:33.243Z,32.30
2018-12-13T23:18:10.505Z,36.40
2018-12-13T23:20:48.525Z,31.03
2018-12-13T23:26:12.152Z,31.40
2018-12-13T23:28:52.796Z,32.30
2018-12-13T23:31:28.993Z,31.07
2018-12-13T23:34:04.829Z,31.93
2018-12-13T23:36:42.375Z,33.70
2018-12-13T23:39:20.677Z,32.50
2018-12-13T23:41:58.374Z,33.73
2018-12-13T23:44:33.602Z,33.27
2018-12-13T23:47:09.803Z,31.10
2018-12-13T23:49:47.485Z,33.70
2018-12-13T23:52:25.203Z,35.43
2018-12-13T23:55:02.295Z,32.23
2018-12-13T23:57:40.000Z,34.20
